sensor_id;sensor_type;location;lat;lon;timestamp;temperature;humidity
1534;DHT22;760;48.822;9.304;2023-04-24T04:05:14;11.40;99.90
1534;DHT22;760;48.822;9.304;2023-04-24T04:07:39;11.30;99.90
1534;DHT22;760;48.822;9.304;2023-04-24T04:10:05;11.30;99.90
1534;DHT22;760;48.822;9.304;2023-04-24T04:12:32;11.20;99.90
1534;DHT22;760;48.822;9.304;2023-04-24T04:14:58;11.20;99.90
1534;DHT22;760;48.822;9.304;2023-04-24T04:17:23;11.20;99.90
1534;DHT22;760;48.822;9.304;2023-04-24T04:19:49;11.20;99.90
1534;DHT22;760;48.822;9.304;2023-04-24T04:22:14;11.20;99.90
1534;DHT22;760;48.822;9.304;2023-04-24T04:24:40;11.20;99.90
1534;DHT22;760;48.822;9.304;2023-04-24T04:27:06;11.20;99.90
1534;DHT22;760;48.822;9.304;2023-04-24T04:29:33;11.30;99.90
1534;DHT22;760;48.822;9.304;2023-04-24T04:31:59;11.30;99.90
1534;DHT22;760;48.822;9.304;2023-04-24T04:34:25;11.40;99.90
1534;DHT22;760;48.822;9.304;2023-04-24T04:36:51;11.40;99.90
1534;DHT22;760;48.822;9.304;2023-04-24T04:39:16;11.50;99.90
1534;DHT22;760;48.822;9.304;2023-04-24T04:41:44;11.50;99.90
1534;DHT22;760;48.822;9.304;2023-04-24T04:44:09;11.50;99.90
1534;DHT22;760;48.822;9.304;2023-04-24T04:46:35;11.50;99.90
1534;DHT22;760;48.822;9.304;2023-04-24T04:49:02;11.50;99.90
1534;DHT22;760;48.822;9.304;2023-04-24T04:51:28;11.50;99.90
1534;DHT22;760;48.822;9.304;2023-04-24T04:53:54;11.40;99.90
1534;DHT22;760;48.822;9.304;2023-04-24T04:56:20;11.40;99.90
1534;DHT22;760;48.822;9.304;2023-04-24T04:58:46;11.40;99.90
1534;DHT22;760;48.822;9.304;2023-04-24T05:01:11;11.40;99.90
1534;DHT22;760;48.822;9.304;2023-04-24T05:03:37;11.40;99.90
1534;DHT22;760;48.822;9.304;2023-04-24T05:06:03;11.40;99.90
1534;DHT22;760;48.822;9.304;2023-04-24T05:08:29;11.30;99.90
1534;DHT22;760;48.822;9.304;2023-04-24T05:10:55;11.30;99.90
1534;DHT22;760;48.822;9.304;2023-04-24T05:13:20;11.30;99.90
1534;DHT22;760;48.822;9.304;2023-04-24T05:15:46;11.20;99.90
1534;DHT22;760;48.822;9.304;2023-04-24T05:18:12;11.20;99.90
1534;DHT22;760;48.822;9.304;2023-04-24T05:20:38;11.20;99.90
1534;DHT22;760;48.822;9.304;2023-04-24T05:23:03;11.20;99.90
1534;DHT22;760;48.822;9.304;2023-04-24T05:25:29;11.20;99.90
1534;DHT22;760;48.822;9.304;2023-04-24T05:27:57;11.10;99.90
1534;DHT22;760;48.822;9.304;2023-04-24T05:30:23;11.10;99.90
1534;DHT22;760;48.822;9.304;2023-04-24T05:32:51;11.20;99.90
1534;DHT22;760;48.822;9.304;2023-04-24T05:35:17;11.20;99.90
1534;DHT22;760;48.822;9.304;2023-04-24T05:37:44;11.20;99.90
1534;DHT22;760;48.822;9.304;2023-04-24T05:40:10;11.20;99.90
1534;DHT22;760;48.822;9.304;2023-04-24T05:42:36;11.20;99.90
1534;DHT22;760;48.822;9.304;2023-04-24T05:45:02;11.30;99.90
1534;DHT22;760;48.822;9.304;2023-04-24T05:47:28;11.30;99.90
1534;DHT22;760;48.822;9.304;2023-04-24T05:49:53;11.30;99.90
1534;DHT22;760;48.822;9.304;2023-04-24T05:52:19;11.30;99.90
1534;DHT22;760;48.822;9.304;2023-04-24T05:54:45;11.40;99.90
1534;DHT22;760;48.822;9.304;2023-04-24T05:57:11;11.40;99.90
1534;DHT22;760;48.822;9.304;2023-04-24T05:59:37;11.40;99.90
1534;DHT22;760;48.822;9.304;2023-04-24T06:02:04;11.50;99.90
1534;DHT22;760;48.822;9.304;2023-04-24T06:04:29;11.60;99.90
1534;DHT22;760;48.822;9.304;2023-04-24T06:06:55;11.70;99.90
1534;DHT22;760;48.822;9.304;2023-04-24T06:09:25;11.80;99.90
1534;DHT22;760;48.822;9.304;2023-04-24T06:11:50;11.80;99.90
1534;DHT22;760;48.822;9.304;2023-04-24T06:14:19;11.90;99.90
1534;DHT22;760;48.822;9.304;2023-04-24T06:16:45;11.90;99.90
1534;DHT22;760;48.822;9.304;2023-04-24T06:19:11;11.90;99.90
1534;DHT22;760;48.822;9.304;2023-04-24T06:21:36;11.90;99.90
1534;DHT22;760;48.822;9.304;2023-04-24T06:24:03;11.80;99.90
1534;DHT22;760;48.822;9.304;2023-04-24T06:26:29;11.90;99.90
1534;DHT22;760;48.822;9.304;2023-04-24T06:28:55;12.00;99.90
1534;DHT22;760;48.822;9.304;2023-04-24T06:31:21;12.20;99.90
1534;DHT22;760;48.822;9.304;2023-04-24T06:33:48;12.50;99.90
1534;DHT22;760;48.822;9.304;2023-04-24T06:36:14;12.90;99.90
1534;DHT22;760;48.822;9.304;2023-04-24T06:38:39;13.40;99.90
1534;DHT22;760;48.822;9.304;2023-04-24T06:41:05;13.90;99.90
1534;DHT22;760;48.822;9.304;2023-04-24T06:43:34;14.40;99.90
1534;DHT22;760;48.822;9.304;2023-04-24T06:46:00;14.70;99.90
1534;DHT22;760;48.822;9.304;2023-04-24T06:48:26;14.90;99.90
1534;DHT22;760;48.822;9.304;2023-04-24T06:50:52;15.00;99.90
1534;DHT22;760;48.822;9.304;2023-04-24T06:53:18;15.30;99.90
1534;DHT22;760;48.822;9.304;2023-04-24T06:55:43;15.60;99.90
1534;DHT22;760;48.822;9.304;2023-04-24T06:58:11;15.90;99.90
1534;DHT22;760;48.822;9.304;2023-04-24T07:00:37;16.30;99.90
1534;DHT22;760;48.822;9.304;2023-04-24T07:03:03;16.70;99.90
1534;DHT22;760;48.822;9.304;2023-04-24T07:05:31;16.70;99.30
1534;DHT22;760;48.822;9.304;2023-04-24T07:07:56;16.60;99.10
1534;DHT22;760;48.822;9.304;2023-04-24T07:10:24;16.60;99.40
1534;DHT22;760;48.822;9.304;2023-04-24T07:12:50;16.30;98.90
1534;DHT22;760;48.822;9.304;2023-04-24T07:15:15;16.30;99.70
1534;DHT22;760;48.822;9.304;2023-04-24T07:17:42;16.40;99.90
1534;DHT22;760;48.822;9.304;2023-04-24T07:20:11;16.80;98.80
1534;DHT22;760;48.822;9.304;2023-04-24T07:22:38;17.00;97.70
1534;DHT22;760;48.822;9.304;2023-04-24T07:25:04;17.00;97.50
1534;DHT22;760;48.822;9.304;2023-04-24T07:27:30;16.90;97.90
1534;DHT22;760;48.822;9.304;2023-04-24T07:29:55;16.60;97.60
1534;DHT22;760;48.822;9.304;2023-04-24T07:32:21;16.20;97.80
1534;DHT22;760;48.822;9.304;2023-04-24T07:34:47;15.80;98.20
1534;DHT22;760;48.822;9.304;2023-04-24T07:37:12;15.40;99.40
1534;DHT22;760;48.822;9.304;2023-04-24T07:39:38;15.00;99.40
1534;DHT22;760;48.822;9.304;2023-04-24T07:42:03;14.70;99.90
1534;DHT22;760;48.822;9.304;2023-04-24T07:44:29;14.40;99.90
1534;DHT22;760;48.822;9.304;2023-04-24T07:46:55;14.20;99.90
1534;DHT22;760;48.822;9.304;2023-04-24T07:49:21;14.20;99.90
1534;DHT22;760;48.822;9.304;2023-04-24T07:51:47;14.30;99.70
1534;DHT22;760;48.822;9.304;2023-04-24T07:54:13;14.40;99.10
1534;DHT22;760;48.822;9.304;2023-04-24T07:56:38;14.80;98.40
1534;DHT22;760;48.822;9.304;2023-04-24T07:59:05;15.00;97.20
1534;DHT22;760;48.822;9.304;2023-04-24T08:01:30;15.10;97.50
1534;DHT22;760;48.822;9.304;2023-04-24T08:03:56;15.00;97.30
1534;DHT22;760;48.822;9.304;2023-04-24T08:06:22;15.10;97.10
1534;DHT22;760;48.822;9.304;2023-04-24T08:08:48;15.10;97.30
1534;DHT22;760;48.822;9.304;2023-04-24T08:11:13;15.50;96.30
1534;DHT22;760;48.822;9.304;2023-04-24T08:13:39;15.90;94.90
1534;DHT22;760;48.822;9.304;2023-04-24T08:16:05;16.00;94.60
1534;DHT22;760;48.822;9.304;2023-04-24T08:18:30;15.90;93.20
1534;DHT22;760;48.822;9.304;2023-04-24T08:20:56;15.80;93.40
1534;DHT22;760;48.822;9.304;2023-04-24T08:23:26;15.70;93.70
1534;DHT22;760;48.822;9.304;2023-04-24T08:25:52;15.40;93.30
1534;DHT22;760;48.822;9.304;2023-04-24T08:28:18;15.50;93.10
1534;DHT22;760;48.822;9.304;2023-04-24T08:30:46;15.80;92.90
1534;DHT22;760;48.822;9.304;2023-04-24T08:33:12;16.30;93.40
1534;DHT22;760;48.822;9.304;2023-04-24T08:35:38;16.80;93.40
1534;DHT22;760;48.822;9.304;2023-04-24T08:38:04;17.20;92.10
1534;DHT22;760;48.822;9.304;2023-04-24T08:40:34;17.60;92.10
1534;DHT22;760;48.822;9.304;2023-04-24T08:43:00;18.20;92.40
1534;DHT22;760;48.822;9.304;2023-04-24T08:45:26;19.00;91.50
1534;DHT22;760;48.822;9.304;2023-04-24T08:47:55;19.20;91.00
1534;DHT22;760;48.822;9.304;2023-04-24T08:50:21;19.80;91.00
1534;DHT22;760;48.822;9.304;2023-04-24T08:52:50;20.40;90.70
1534;DHT22;760;48.822;9.304;2023-04-24T08:55:16;21.00;88.70
1534;DHT22;760;48.822;9.304;2023-04-24T08:57:45;21.10;85.80
1534;DHT22;760;48.822;9.304;2023-04-24T09:00:11;20.80;84.60
1534;DHT22;760;48.822;9.304;2023-04-24T09:02:41;20.00;85.20
1534;DHT22;760;48.822;9.304;2023-04-24T09:05:08;18.90;86.50
1534;DHT22;760;48.822;9.304;2023-04-24T09:07:35;18.10;88.90
1534;DHT22;760;48.822;9.304;2023-04-24T09:10:05;17.30;90.30
1534;DHT22;760;48.822;9.304;2023-04-24T09:12:32;17.10;88.40
1534;DHT22;760;48.822;9.304;2023-04-24T09:14:58;16.80;90.00
1534;DHT22;760;48.822;9.304;2023-04-24T09:17:25;16.50;90.30
1534;DHT22;760;48.822;9.304;2023-04-24T09:19:52;16.40;90.60
1534;DHT22;760;48.822;9.304;2023-04-24T09:22:18;16.20;91.00
1534;DHT22;760;48.822;9.304;2023-04-24T09:24:45;16.10;91.10
1534;DHT22;760;48.822;9.304;2023-04-24T09:27:11;15.80;91.40
1534;DHT22;760;48.822;9.304;2023-04-24T09:29:38;15.40;92.00
1534;DHT22;760;48.822;9.304;2023-04-24T09:32:19;14.90;92.70
1534;DHT22;760;48.822;9.304;2023-04-24T09:34:47;14.50;93.10
1534;DHT22;760;48.822;9.304;2023-04-24T09:37:30;14.10;94.70
1534;DHT22;760;48.822;9.304;2023-04-24T09:40:21;13.80;96.30
1534;DHT22;760;48.822;9.304;2023-04-24T09:42:56;13.70;96.20
1534;DHT22;760;48.822;9.304;2023-04-24T09:45:28;13.40;97.10
1534;DHT22;760;48.822;9.304;2023-04-24T09:47:55;13.30;97.70
1534;DHT22;760;48.822;9.304;2023-04-24T09:50:21;13.20;98.30
1534;DHT22;760;48.822;9.304;2023-04-24T09:52:59;13.30;99.30
1534;DHT22;760;48.822;9.304;2023-04-24T09:55:25;13.60;98.80
1534;DHT22;760;48.822;9.304;2023-04-24T09:58:00;14.20;98.80
1534;DHT22;760;48.822;9.304;2023-04-24T10:00:27;15.20;97.60
1534;DHT22;760;48.822;9.304;2023-04-24T10:03:04;15.80;95.50
1534;DHT22;760;48.822;9.304;2023-04-24T10:05:30;16.10;94.00
1534;DHT22;760;48.822;9.304;2023-04-24T10:10:30;16.00;92.30
1534;DHT22;760;48.822;9.304;2023-04-24T10:12:56;15.90;93.60
1534;DHT22;760;48.822;9.304;2023-04-24T10:15:22;16.00;93.30
1534;DHT22;760;48.822;9.304;2023-04-24T10:17:49;15.90;94.00
1534;DHT22;760;48.822;9.304;2023-04-24T10:20:23;16.00;93.20
1534;DHT22;760;48.822;9.304;2023-04-24T10:22:51;16.20;92.30
1534;DHT22;760;48.822;9.304;2023-04-24T10:25:19;16.30;91.70
1534;DHT22;760;48.822;9.304;2023-04-24T10:27:46;16.50;91.80
1534;DHT22;760;48.822;9.304;2023-04-24T10:30:12;17.10;91.20
1534;DHT22;760;48.822;9.304;2023-04-24T10:32:39;17.80;89.50
1534;DHT22;760;48.822;9.304;2023-04-24T10:35:06;18.40;85.70
1534;DHT22;760;48.822;9.304;2023-04-24T10:37:45;18.60;83.80
1534;DHT22;760;48.822;9.304;2023-04-24T10:40:16;18.40;83.90
1534;DHT22;760;48.822;9.304;2023-04-24T10:42:42;18.10;82.30
1534;DHT22;760;48.822;9.304;2023-04-24T10:45:19;17.70;82.90
1534;DHT22;760;48.822;9.304;2023-04-24T10:48:03;17.20;83.40
1534;DHT22;760;48.822;9.304;2023-04-24T10:50:41;16.70;84.60
1534;DHT22;760;48.822;9.304;2023-04-24T10:53:12;16.20;85.80
1534;DHT22;760;48.822;9.304;2023-04-24T10:55:48;15.80;85.90
1534;DHT22;760;48.822;9.304;2023-04-24T10:58:14;15.20;86.40
1534;DHT22;760;48.822;9.304;2023-04-24T11:00:43;14.70;89.30
1534;DHT22;760;48.822;9.304;2023-04-24T11:03:30;14.50;90.20
1534;DHT22;760;48.822;9.304;2023-04-24T11:08:30;14.50;91.90
1534;DHT22;760;48.822;9.304;2023-04-24T11:11:01;14.50;91.20
1534;DHT22;760;48.822;9.304;2023-04-24T11:16:31;14.50;91.40
1534;DHT22;760;48.822;9.304;2023-04-24T11:27:19;14.90;92.00
1534;DHT22;760;48.822;9.304;2023-04-24T11:35:02;15.20;91.20
1534;DHT22;760;48.822;9.304;2023-04-24T11:37:39;15.20;91.40
1534;DHT22;760;48.822;9.304;2023-04-24T11:40:10;15.30;90.70
1534;DHT22;760;48.822;9.304;2023-04-24T11:42:40;15.40;90.70
1534;DHT22;760;48.822;9.304;2023-04-24T11:45:18;15.60;89.80
1534;DHT22;760;48.822;9.304;2023-04-24T11:47:44;15.70;89.80
1534;DHT22;760;48.822;9.304;2023-04-24T11:50:12;15.70;89.30
1534;DHT22;760;48.822;9.304;2023-04-24T11:52:40;15.70;89.50
1534;DHT22;760;48.822;9.304;2023-04-24T11:57:45;15.60;90.00
1534;DHT22;760;48.822;9.304;2023-04-24T12:00:20;15.50;90.30
1534;DHT22;760;48.822;9.304;2023-04-24T12:02:46;15.20;90.80
1534;DHT22;760;48.822;9.304;2023-04-24T12:05:25;15.00;91.80
1534;DHT22;760;48.822;9.304;2023-04-24T12:07:51;14.60;94.20
1534;DHT22;760;48.822;9.304;2023-04-24T12:10:21;14.30;96.20
1534;DHT22;760;48.822;9.304;2023-04-24T12:12:47;14.10;98.40
1534;DHT22;760;48.822;9.304;2023-04-24T12:15:16;14.00;98.40
1534;DHT22;760;48.822;9.304;2023-04-24T12:17:42;14.10;98.90
1534;DHT22;760;48.822;9.304;2023-04-24T12:20:09;14.40;96.10
1534;DHT22;760;48.822;9.304;2023-04-24T12:22:54;14.60;95.90
1534;DHT22;760;48.822;9.304;2023-04-24T12:25:22;14.80;95.40
1534;DHT22;760;48.822;9.304;2023-04-24T12:27:54;14.90;95.80
1534;DHT22;760;48.822;9.304;2023-04-24T12:30:20;14.90;94.30
1534;DHT22;760;48.822;9.304;2023-04-24T12:32:49;14.90;94.50
1534;DHT22;760;48.822;9.304;2023-04-24T12:35:22;14.80;94.80
1534;DHT22;760;48.822;9.304;2023-04-24T12:37:49;14.70;94.00
1534;DHT22;760;48.822;9.304;2023-04-24T12:40:16;14.60;93.10
1534;DHT22;760;48.822;9.304;2023-04-24T12:42:47;14.30;93.20
1534;DHT22;760;48.822;9.304;2023-04-24T12:45:14;14.20;93.00
1534;DHT22;760;48.822;9.304;2023-04-24T12:47:41;14.20;94.10
1534;DHT22;760;48.822;9.304;2023-04-24T12:50:08;14.30;94.90
1534;DHT22;760;48.822;9.304;2023-04-24T12:52:34;14.20;94.70
1534;DHT22;760;48.822;9.304;2023-04-24T12:55:00;14.20;94.40
1534;DHT22;760;48.822;9.304;2023-04-24T12:57:29;14.10;94.50
1534;DHT22;760;48.822;9.304;2023-04-24T12:59:56;14.10;94.70
1534;DHT22;760;48.822;9.304;2023-04-24T13:02:23;14.00;95.40
1534;DHT22;760;48.822;9.304;2023-04-24T13:04:49;14.10;95.30
1534;DHT22;760;48.822;9.304;2023-04-24T13:07:15;14.20;94.80
1534;DHT22;760;48.822;9.304;2023-04-24T13:09:42;14.40;95.00
1534;DHT22;760;48.822;9.304;2023-04-24T13:12:08;14.40;94.60
1534;DHT22;760;48.822;9.304;2023-04-24T13:14:34;14.30;94.10
1534;DHT22;760;48.822;9.304;2023-04-24T13:17:00;14.10;96.40
1534;DHT22;760;48.822;9.304;2023-04-24T13:19:27;13.90;98.40
1534;DHT22;760;48.822;9.304;2023-04-24T13:21:54;13.70;99.90
1534;DHT22;760;48.822;9.304;2023-04-24T13:24:21;13.50;99.90
1534;DHT22;760;48.822;9.304;2023-04-24T13:26:50;13.40;99.90
1534;DHT22;760;48.822;9.304;2023-04-24T13:29:16;13.40;99.90
1534;DHT22;760;48.822;9.304;2023-04-24T13:31:42;13.40;99.90
1534;DHT22;760;48.822;9.304;2023-04-24T13:34:08;13.50;99.90
1534;DHT22;760;48.822;9.304;2023-04-24T13:36:33;13.50;99.90
1534;DHT22;760;48.822;9.304;2023-04-24T13:38:59;13.50;99.90
1534;DHT22;760;48.822;9.304;2023-04-24T13:41:24;13.60;99.90
1534;DHT22;760;48.822;9.304;2023-04-24T13:43:50;13.70;99.90
1534;DHT22;760;48.822;9.304;2023-04-24T13:46:16;13.90;99.80
1534;DHT22;760;48.822;9.304;2023-04-24T13:48:42;14.10;99.90
1534;DHT22;760;48.822;9.304;2023-04-24T13:51:07;14.30;99.90
1534;DHT22;760;48.822;9.304;2023-04-24T13:53:33;14.30;99.90
1534;DHT22;760;48.822;9.304;2023-04-24T13:56:01;14.40;99.20
1534;DHT22;760;48.822;9.304;2023-04-24T13:58:27;14.40;99.10
1534;DHT22;760;48.822;9.304;2023-04-24T14:00:53;14.40;98.00
1534;DHT22;760;48.822;9.304;2023-04-24T14:03:18;14.20;97.80
1534;DHT22;760;48.822;9.304;2023-04-24T14:05:44;14.10;96.90
1534;DHT22;760;48.822;9.304;2023-04-24T14:08:09;13.90;98.50
1534;DHT22;760;48.822;9.304;2023-04-24T14:10:35;13.80;99.80
1534;DHT22;760;48.822;9.304;2023-04-24T14:13:01;13.60;99.90
1534;DHT22;760;48.822;9.304;2023-04-24T14:15:26;13.50;99.90
1534;DHT22;760;48.822;9.304;2023-04-24T14:17:52;13.60;99.90
1534;DHT22;760;48.822;9.304;2023-04-24T14:20:18;13.60;99.90
1534;DHT22;760;48.822;9.304;2023-04-24T14:22:43;13.60;99.90
1534;DHT22;760;48.822;9.304;2023-04-24T14:25:09;13.70;99.90
1534;DHT22;760;48.822;9.304;2023-04-24T14:27:34;13.70;99.90
1534;DHT22;760;48.822;9.304;2023-04-24T14:30:00;13.70;99.90
1534;DHT22;760;48.822;9.304;2023-04-24T14:32:26;13.80;99.90
1534;DHT22;760;48.822;9.304;2023-04-24T14:34:52;13.90;99.90
1534;DHT22;760;48.822;9.304;2023-04-24T14:37:17;14.00;99.70
1534;DHT22;760;48.822;9.304;2023-04-24T14:39:43;14.10;98.80
1534;DHT22;760;48.822;9.304;2023-04-24T14:42:09;14.30;98.50
1534;DHT22;760;48.822;9.304;2023-04-24T14:44:34;14.30;98.00
1534;DHT22;760;48.822;9.304;2023-04-24T14:47:00;14.40;98.30
1534;DHT22;760;48.822;9.304;2023-04-24T14:49:26;14.50;97.30
1534;DHT22;760;48.822;9.304;2023-04-24T14:51:51;14.60;97.10
1534;DHT22;760;48.822;9.304;2023-04-24T14:54:17;14.60;96.60
1534;DHT22;760;48.822;9.304;2023-04-24T14:56:43;14.60;96.50
1534;DHT22;760;48.822;9.304;2023-04-24T14:59:10;14.50;96.40
1534;DHT22;760;48.822;9.304;2023-04-24T15:01:35;14.40;96.10
1534;DHT22;760;48.822;9.304;2023-04-24T15:04:01;14.30;96.90
1534;DHT22;760;48.822;9.304;2023-04-24T15:06:27;14.30;96.80
1534;DHT22;760;48.822;9.304;2023-04-24T15:08:53;14.30;96.90
1534;DHT22;760;48.822;9.304;2023-04-24T15:11:18;14.30;96.50
1534;DHT22;760;48.822;9.304;2023-04-24T15:13:44;14.40;96.60
1534;DHT22;760;48.822;9.304;2023-04-24T15:16:12;14.50;96.40
1534;DHT22;760;48.822;9.304;2023-04-24T15:18:38;14.50;96.30
1534;DHT22;760;48.822;9.304;2023-04-24T15:21:04;14.60;95.50
1534;DHT22;760;48.822;9.304;2023-04-24T15:23:30;14.50;95.50
1534;DHT22;760;48.822;9.304;2023-04-24T15:25:55;14.30;95.10
1534;DHT22;760;48.822;9.304;2023-04-24T15:28:21;14.00;95.30
1534;DHT22;760;48.822;9.304;2023-04-24T15:30:47;13.80;96.10
1534;DHT22;760;48.822;9.304;2023-04-24T15:33:13;13.70;97.60
1534;DHT22;760;48.822;9.304;2023-04-24T15:35:39;13.60;97.50
1534;DHT22;760;48.822;9.304;2023-04-24T15:38:05;13.70;97.20
1534;DHT22;760;48.822;9.304;2023-04-24T15:40:31;13.70;96.70
1534;DHT22;760;48.822;9.304;2023-04-24T15:42:56;13.60;96.30
1534;DHT22;760;48.822;9.304;2023-04-24T15:45:22;13.60;96.00
1534;DHT22;760;48.822;9.304;2023-04-24T15:47:48;13.50;97.70
1534;DHT22;760;48.822;9.304;2023-04-24T15:50:15;13.30;99.90
1534;DHT22;760;48.822;9.304;2023-04-24T15:52:42;13.20;99.90
1534;DHT22;760;48.822;9.304;2023-04-24T15:55:08;13.00;99.90
1534;DHT22;760;48.822;9.304;2023-04-24T15:57:35;12.90;99.90
1534;DHT22;760;48.822;9.304;2023-04-24T16:00:01;12.90;99.90
1534;DHT22;760;48.822;9.304;2023-04-24T16:02:27;12.90;99.90
1534;DHT22;760;48.822;9.304;2023-04-24T16:04:53;12.90;99.90
1534;DHT22;760;48.822;9.304;2023-04-24T16:07:19;12.90;99.90
1534;DHT22;760;48.822;9.304;2023-04-24T16:09:44;12.90;99.90
1534;DHT22;760;48.822;9.304;2023-04-24T16:12:10;12.90;99.70
1534;DHT22;760;48.822;9.304;2023-04-24T16:14:37;12.80;99.90
1534;DHT22;760;48.822;9.304;2023-04-24T16:17:03;12.70;99.90
1534;DHT22;760;48.822;9.304;2023-04-24T16:19:28;12.70;99.90
1534;DHT22;760;48.822;9.304;2023-04-24T16:21:54;12.70;99.90
1534;DHT22;760;48.822;9.304;2023-04-24T16:24:22;12.60;99.90
1534;DHT22;760;48.822;9.304;2023-04-24T16:26:49;12.60;99.90
1534;DHT22;760;48.822;9.304;2023-04-24T16:29:15;12.50;99.90
1534;DHT22;760;48.822;9.304;2023-04-24T16:31:41;12.50;99.90
1534;DHT22;760;48.822;9.304;2023-04-24T16:34:06;12.50;99.90
1534;DHT22;760;48.822;9.304;2023-04-24T16:36:32;12.40;99.90
1534;DHT22;760;48.822;9.304;2023-04-24T16:38:58;12.40;99.90
1534;DHT22;760;48.822;9.304;2023-04-24T16:41:26;12.40;99.90
1534;DHT22;760;48.822;9.304;2023-04-24T16:43:51;12.40;99.90
1534;DHT22;760;48.822;9.304;2023-04-24T16:46:18;12.40;99.90
1534;DHT22;760;48.822;9.304;2023-04-24T16:48:43;12.40;99.90
1534;DHT22;760;48.822;9.304;2023-04-24T16:51:09;12.40;99.90
1534;DHT22;760;48.822;9.304;2023-04-24T16:53:35;12.30;99.90
1534;DHT22;760;48.822;9.304;2023-04-24T16:56:01;12.30;99.90
1534;DHT22;760;48.822;9.304;2023-04-24T16:58:27;12.30;99.90
1534;DHT22;760;48.822;9.304;2023-04-24T17:00:53;12.30;99.90
1534;DHT22;760;48.822;9.304;2023-04-24T17:03:18;12.20;99.90
1534;DHT22;760;48.822;9.304;2023-04-24T17:05:44;12.20;99.90
1534;DHT22;760;48.822;9.304;2023-04-24T17:08:09;12.20;99.90
1534;DHT22;760;48.822;9.304;2023-04-24T17:10:35;12.20;99.90
1534;DHT22;760;48.822;9.304;2023-04-24T17:13:01;12.20;99.90
1534;DHT22;760;48.822;9.304;2023-04-24T17:15:26;12.20;99.90
1534;DHT22;760;48.822;9.304;2023-04-24T17:17:52;12.20;99.90
1534;DHT22;760;48.822;9.304;2023-04-24T17:20:18;12.20;99.90
1534;DHT22;760;48.822;9.304;2023-04-24T17:22:43;12.20;99.90
1534;DHT22;760;48.822;9.304;2023-04-24T17:25:09;12.20;99.90
1534;DHT22;760;48.822;9.304;2023-04-24T17:27:35;12.20;99.90
1534;DHT22;760;48.822;9.304;2023-04-24T17:30:01;12.20;99.90
1534;DHT22;760;48.822;9.304;2023-04-24T17:32:26;12.20;99.90
1534;DHT22;760;48.822;9.304;2023-04-24T17:34:52;12.20;99.90
1534;DHT22;760;48.822;9.304;2023-04-24T17:37:18;12.20;99.90
1534;DHT22;760;48.822;9.304;2023-04-24T17:39:48;12.20;99.90
1534;DHT22;760;48.822;9.304;2023-04-24T17:42:13;12.20;99.90
1534;DHT22;760;48.822;9.304;2023-04-24T17:44:39;12.10;99.90
1534;DHT22;760;48.822;9.304;2023-04-24T17:47:05;12.10;99.90
1534;DHT22;760;48.822;9.304;2023-04-24T17:49:30;12.10;99.90
1534;DHT22;760;48.822;9.304;2023-04-24T17:51:56;12.00;99.90
1534;DHT22;760;48.822;9.304;2023-04-24T17:54:21;12.00;99.90
1534;DHT22;760;48.822;9.304;2023-04-24T17:56:47;12.00;99.90
1534;DHT22;760;48.822;9.304;2023-04-24T17:59:13;11.90;99.90
1534;DHT22;760;48.822;9.304;2023-04-24T18:01:38;11.90;99.70
1534;DHT22;760;48.822;9.304;2023-04-24T18:04:04;11.90;99.40
1534;DHT22;760;48.822;9.304;2023-04-24T18:06:29;11.90;99.70
1534;DHT22;760;48.822;9.304;2023-04-24T18:08:56;11.80;99.70
1534;DHT22;760;48.822;9.304;2023-04-24T18:11:22;11.80;99.50
1534;DHT22;760;48.822;9.304;2023-04-24T18:13:48;11.80;99.10
1534;DHT22;760;48.822;9.304;2023-04-24T18:16:15;11.80;99.00
1534;DHT22;760;48.822;9.304;2023-04-24T18:18:40;11.80;99.10
1534;DHT22;760;48.822;9.304;2023-04-24T18:21:06;11.70;99.30
1534;DHT22;760;48.822;9.304;2023-04-24T18:23:32;11.70;99.30
1534;DHT22;760;48.822;9.304;2023-04-24T18:25:59;11.70;99.20
1534;DHT22;760;48.822;9.304;2023-04-24T18:28:25;11.70;99.30
1534;DHT22;760;48.822;9.304;2023-04-24T18:30:51;11.70;99.40
1534;DHT22;760;48.822;9.304;2023-04-24T18:33:16;11.70;99.60
1534;DHT22;760;48.822;9.304;2023-04-24T18:35:43;11.70;99.80
1534;DHT22;760;48.822;9.304;2023-04-24T18:38:09;11.70;99.90
1534;DHT22;760;48.822;9.304;2023-04-24T18:40:34;11.70;99.90
1534;DHT22;760;48.822;9.304;2023-04-24T18:43:00;11.70;99.90
1534;DHT22;760;48.822;9.304;2023-04-24T18:45:26;11.70;99.90
1534;DHT22;760;48.822;9.304;2023-04-24T18:47:51;11.70;99.90
1534;DHT22;760;48.822;9.304;2023-04-24T18:50:17;11.70;99.90
1534;DHT22;760;48.822;9.304;2023-04-24T18:52:44;11.70;99.90
1534;DHT22;760;48.822;9.304;2023-04-24T18:55:10;11.70;99.90
1534;DHT22;760;48.822;9.304;2023-04-24T18:57:35;11.60;99.90
1534;DHT22;760;48.822;9.304;2023-04-24T19:00:02;11.60;99.90
1534;DHT22;760;48.822;9.304;2023-04-24T19:02:28;11.60;99.90
1534;DHT22;760;48.822;9.304;2023-04-24T19:04:54;11.60;99.90
1534;DHT22;760;48.822;9.304;2023-04-24T19:07:20;11.50;99.90
1534;DHT22;760;48.822;9.304;2023-04-24T19:09:46;11.50;99.90
1534;DHT22;760;48.822;9.304;2023-04-24T19:12:11;11.50;99.90
1534;DHT22;760;48.822;9.304;2023-04-24T19:14:37;11.40;99.90
1534;DHT22;760;48.822;9.304;2023-04-24T19:17:06;11.40;99.90
1534;DHT22;760;48.822;9.304;2023-04-24T19:19:34;11.30;99.90
1534;DHT22;760;48.822;9.304;2023-04-24T19:22:00;11.30;99.90
1534;DHT22;760;48.822;9.304;2023-04-24T19:24:26;11.30;99.90
1534;DHT22;760;48.822;9.304;2023-04-24T19:26:54;11.20;99.90
1534;DHT22;760;48.822;9.304;2023-04-24T19:29:21;11.10;99.90
1534;DHT22;760;48.822;9.304;2023-04-24T19:31:47;11.10;99.90
1534;DHT22;760;48.822;9.304;2023-04-24T19:34:13;11.00;99.90
1534;DHT22;760;48.822;9.304;2023-04-24T19:36:38;10.90;99.90
1534;DHT22;760;48.822;9.304;2023-04-24T19:39:04;10.80;99.90
1534;DHT22;760;48.822;9.304;2023-04-24T19:41:30;10.70;99.90
1534;DHT22;760;48.822;9.304;2023-04-24T19:43:56;10.60;99.90
1534;DHT22;760;48.822;9.304;2023-04-24T19:46:21;10.60;99.90
1534;DHT22;760;48.822;9.304;2023-04-24T19:48:47;10.60;99.90
1534;DHT22;760;48.822;9.304;2023-04-24T19:51:13;10.50;99.90
1534;DHT22;760;48.822;9.304;2023-04-24T19:53:38;10.40;99.90
1534;DHT22;760;48.822;9.304;2023-04-24T19:56:05;10.40;99.90
1534;DHT22;760;48.822;9.304;2023-04-24T19:58:31;10.30;99.90
1534;DHT22;760;48.822;9.304;2023-04-24T20:00:57;10.30;99.90
1534;DHT22;760;48.822;9.304;2023-04-24T20:03:22;10.20;99.90
1534;DHT22;760;48.822;9.304;2023-04-24T20:05:48;10.20;99.90
1534;DHT22;760;48.822;9.304;2023-04-24T20:08:14;10.20;99.90
1534;DHT22;760;48.822;9.304;2023-04-24T20:10:39;10.20;99.90
1534;DHT22;760;48.822;9.304;2023-04-24T20:13:05;10.20;99.90
1534;DHT22;760;48.822;9.304;2023-04-24T20:15:31;10.20;99.90
1534;DHT22;760;48.822;9.304;2023-04-24T20:17:58;10.20;99.90
1534;DHT22;760;48.822;9.304;2023-04-24T20:20:24;10.20;99.90
1534;DHT22;760;48.822;9.304;2023-04-24T20:22:49;10.20;99.90
1534;DHT22;760;48.822;9.304;2023-04-24T20:25:16;10.30;99.90
1534;DHT22;760;48.822;9.304;2023-04-24T20:27:41;10.30;99.90
1534;DHT22;760;48.822;9.304;2023-04-24T20:30:07;10.30;99.90
1534;DHT22;760;48.822;9.304;2023-04-24T20:32:41;10.30;99.90
1534;DHT22;760;48.822;9.304;2023-04-24T20:35:07;10.20;99.90
1534;DHT22;760;48.822;9.304;2023-04-24T20:37:33;10.20;99.90
1534;DHT22;760;48.822;9.304;2023-04-24T20:39:59;10.20;99.90
1534;DHT22;760;48.822;9.304;2023-04-24T20:42:32;10.20;99.90